createdAt,value
2023-09-29T00:00:24.645Z,77.00
2023-09-29T00:02:56.504Z,77.10
2023-09-29T00:05:25.029Z,77.10
2023-09-29T00:07:53.750Z,77.10
2023-09-29T00:10:23.244Z,77.30
2023-09-29T00:12:52.374Z,77.40
2023-09-29T00:15:23.242Z,77.50
2023-09-29T00:17:51.849Z,77.60
2023-09-29T00:20:24.897Z,77.60
2023-09-29T00:22:54.456Z,77.80
2023-09-29T00:25:23.581Z,78.00
2023-09-29T00:27:52.490Z,78.00
2023-09-29T00:30:22.584Z,78.80
2023-09-29T00:32:53.047Z,78.20
2023-09-29T00:35:29.256Z,78.40
2023-09-29T00:38:00.322Z,78.60
2023-09-29T00:40:29.842Z,78.70
2023-09-29T00:43:00.120Z,78.70
2023-09-29T00:45:30.761Z,78.90
2023-09-29T00:48:09.845Z,79.00
2023-09-29T00:50:40.371Z,79.20
2023-09-29T00:53:15.465Z,79.30
2023-09-29T00:55:46.784Z,79.40
2023-09-29T00:58:18.393Z,79.60
2023-09-29T01:00:48.661Z,79.60
2023-09-29T01:03:17.473Z,79.80
2023-09-29T01:05:48.074Z,80.00
2023-09-29T01:08:20.734Z,80.10
2023-09-29T01:10:50.072Z,80.20
2023-09-29T01:13:19.305Z,80.40
2023-09-29T01:15:50.501Z,80.70
2023-09-29T01:18:18.966Z,80.90
2023-09-29T01:20:48.389Z,81.10
2023-09-29T01:23:17.007Z,81.20
2023-09-29T01:25:47.352Z,81.30
2023-09-29T01:28:15.774Z,81.40
2023-09-29T01:30:44.848Z,81.60
2023-09-29T01:33:13.925Z,81.70
2023-09-29T01:35:45.362Z,82.00
2023-09-29T01:38:14.554Z,82.00
2023-09-29T01:40:45.660Z,82.10
2023-09-29T01:43:17.471Z,82.20
2023-09-29T01:45:45.860Z,82.40
2023-09-29T01:48:14.794Z,82.60
2023-09-29T01:50:43.607Z,82.70
2023-09-29T01:53:13.525Z,82.70
2023-09-29T01:55:41.969Z,82.70
2023-09-29T01:58:10.995Z,82.80
2023-09-29T02:00:40.827Z,82.90
2023-09-29T02:03:09.745Z,83.00
2023-09-29T02:05:38.287Z,83.40
2023-09-29T02:08:07.937Z,83.40
2023-09-29T02:10:36.628Z,83.50
2023-09-29T02:13:06.833Z,83.60
2023-09-29T02:15:36.626Z,83.60
2023-09-29T02:18:07.901Z,83.60
2023-09-29T02:20:37.811Z,83.70
2023-09-29T02:23:07.737Z,83.80
2023-09-29T02:25:36.120Z,84.00
2023-09-29T02:28:05.094Z,84.10
2023-09-29T02:30:33.378Z,84.10
2023-09-29T02:33:01.737Z,84.20
2023-09-29T02:35:32.228Z,84.20
2023-09-29T02:38:03.117Z,84.20
2023-09-29T02:40:31.624Z,84.30
2023-09-29T02:43:00.220Z,85.00
2023-09-29T02:45:28.867Z,84.50
2023-09-29T02:47:58.747Z,84.40
2023-09-29T02:50:28.125Z,84.70
2023-09-29T02:52:58.028Z,84.70
2023-09-29T02:55:27.114Z,84.80
2023-09-29T02:57:55.432Z,84.90
2023-09-29T03:00:27.960Z,85.10
2023-09-29T03:02:56.413Z,85.30
2023-09-29T03:05:26.577Z,85.50
2023-09-29T03:07:56.985Z,85.60
2023-09-29T03:10:27.826Z,85.80
2023-09-29T03:12:58.395Z,86.10
2023-09-29T03:15:28.457Z,86.20
2023-09-29T03:18:00.058Z,86.40
2023-09-29T03:20:29.610Z,86.60
2023-09-29T03:23:00.271Z,86.70
2023-09-29T03:25:31.149Z,86.80
2023-09-29T03:28:00.935Z,87.00
2023-09-29T03:30:29.847Z,87.10
2023-09-29T03:32:58.675Z,87.20
2023-09-29T03:35:27.752Z,87.50
2023-09-29T03:37:56.264Z,87.60
2023-09-29T03:40:25.840Z,87.80
2023-09-29T03:42:55.584Z,88.70
2023-09-29T03:45:24.035Z,88.30
2023-09-29T03:47:52.649Z,88.50
2023-09-29T03:50:22.044Z,88.60
2023-09-29T03:52:50.400Z,88.70
2023-09-29T03:55:18.790Z,89.00
2023-09-29T03:57:47.091Z,89.10
2023-09-29T04:00:19.916Z,89.10
2023-09-29T04:02:52.249Z,89.10
2023-09-29T04:05:21.854Z,89.20
2023-09-29T04:07:50.410Z,89.30
2023-09-29T04:10:22.648Z,89.40
2023-09-29T04:12:51.267Z,89.70
2023-09-29T04:15:21.429Z,89.80
2023-09-29T04:17:49.717Z,89.90
2023-09-29T04:20:19.507Z,90.00
2023-09-29T04:22:47.754Z,90.10
2023-09-29T04:25:17.652Z,90.20
2023-09-29T04:27:45.981Z,90.20
2023-09-29T04:30:14.818Z,90.30
2023-09-29T04:32:44.751Z,90.30
2023-09-29T04:35:13.389Z,90.30
2023-09-29T04:37:42.304Z,90.30
2023-09-29T04:40:11.420Z,90.40
2023-09-29T04:42:39.802Z,90.40
2023-09-29T04:45:09.535Z,90.50
2023-09-29T04:47:39.538Z,90.60
2023-09-29T04:50:12.552Z,90.60
2023-09-29T04:52:40.859Z,90.70
2023-09-29T04:55:10.143Z,90.80
2023-09-29T04:57:38.842Z,90.80
2023-09-29T05:00:08.652Z,90.80
2023-09-29T05:02:37.030Z,90.70
2023-09-29T05:05:06.380Z,90.70
2023-09-29T05:07:36.608Z,90.70
2023-09-29T05:10:05.880Z,90.70
2023-09-29T05:12:35.376Z,90.70
2023-09-29T05:15:04.035Z,90.70
2023-09-29T05:17:44.985Z,90.70
2023-09-29T05:20:19.490Z,90.70
2023-09-29T05:22:49.280Z,90.80
2023-09-29T05:25:18.287Z,90.90
2023-09-29T05:27:46.507Z,90.90
2023-09-29T05:30:15.375Z,91.00
2023-09-29T05:32:44.078Z,91.00
2023-09-29T05:35:12.582Z,91.10
2023-09-29T05:37:41.101Z,91.10
2023-09-29T05:40:12.386Z,91.10
2023-09-29T05:42:51.169Z,91.10
2023-09-29T05:45:22.339Z,91.10
2023-09-29T05:47:53.500Z,91.00
2023-09-29T05:50:22.946Z,90.90
2023-09-29T05:53:08.464Z,90.70
2023-09-29T05:55:40.308Z,90.60
2023-09-29T05:58:08.918Z,90.50
2023-09-29T06:00:38.165Z,90.50
2023-09-29T06:03:07.040Z,90.40
2023-09-29T06:05:35.609Z,90.30
2023-09-29T06:08:04.072Z,90.20
2023-09-29T06:10:32.463Z,90.00
2023-09-29T06:13:04.855Z,89.10
2023-09-29T06:15:34.081Z,88.80
2023-09-29T06:18:02.570Z,88.70
2023-09-29T06:20:30.965Z,88.60
2023-09-29T06:22:59.998Z,88.00
2023-09-29T06:25:28.341Z,87.40
2023-09-29T06:27:57.084Z,87.70
2023-09-29T06:30:26.912Z,86.20
2023-09-29T06:32:55.445Z,86.10
2023-09-29T06:35:23.812Z,85.60
2023-09-29T06:37:53.099Z,85.70
2023-09-29T06:40:21.419Z,85.60
2023-09-29T06:42:49.736Z,85.40
2023-09-29T06:45:18.114Z,85.10
2023-09-29T06:47:47.915Z,84.10
2023-09-29T06:50:16.333Z,82.80
2023-09-29T06:52:44.584Z,81.70
2023-09-29T06:55:14.103Z,81.10
2023-09-29T06:57:43.176Z,81.00
2023-09-29T07:00:13.045Z,80.30
2023-09-29T07:02:43.749Z,80.00
2023-09-29T07:05:13.854Z,79.70
2023-09-29T07:07:42.229Z,79.70
2023-09-29T07:10:11.520Z,80.10
2023-09-29T07:12:39.950Z,79.40
2023-09-29T07:15:09.927Z,79.40
2023-09-29T07:17:45.423Z,79.20
2023-09-29T07:20:15.390Z,78.80
2023-09-29T07:22:44.005Z,77.70
2023-09-29T07:25:13.072Z,77.30
2023-09-29T07:27:41.344Z,76.30
2023-09-29T07:30:10.790Z,75.70
2023-09-29T07:32:41.435Z,75.40
2023-09-29T07:35:10.481Z,75.50
2023-09-29T07:37:40.546Z,74.60
2023-09-29T07:40:11.027Z,73.90
2023-09-29T07:42:39.400Z,73.20
2023-09-29T07:45:08.945Z,73.60
2023-09-29T07:47:39.311Z,74.90
2023-09-29T07:50:08.528Z,74.50
2023-09-29T07:52:39.199Z,75.00
2023-09-29T07:55:10.952Z,74.90
2023-09-29T07:57:40.033Z,74.90
2023-09-29T08:00:10.513Z,75.00
2023-09-29T08:02:42.166Z,74.90
2023-09-29T08:05:13.670Z,74.80
2023-09-29T08:07:42.231Z,74.60
2023-09-29T08:10:13.045Z,74.20
2023-09-29T08:12:41.834Z,74.00
2023-09-29T08:15:12.746Z,73.90
2023-09-29T08:17:41.266Z,73.50
2023-09-29T08:20:10.862Z,73.30
2023-09-29T08:22:41.772Z,73.50
2023-09-29T08:25:13.073Z,73.50
2023-09-29T08:27:41.614Z,73.60
2023-09-29T08:30:11.750Z,73.40
2023-09-29T08:32:44.540Z,73.40
2023-09-29T08:35:15.109Z,73.40
2023-09-29T08:37:44.887Z,73.20
2023-09-29T08:40:18.829Z,73.20
2023-09-29T08:42:51.378Z,73.00
2023-09-29T08:45:21.548Z,72.80
2023-09-29T08:47:53.605Z,72.70
2023-09-29T08:50:25.535Z,72.10
2023-09-29T08:52:54.999Z,71.80
2023-09-29T08:55:26.217Z,71.20
2023-09-29T08:57:56.027Z,70.30
2023-09-29T09:00:27.625Z,69.40
2023-09-29T09:02:59.725Z,69.10
2023-09-29T09:05:29.272Z,68.70
2023-09-29T09:08:00.070Z,68.20
2023-09-29T09:10:37.065Z,67.60
2023-09-29T09:13:06.714Z,67.70
2023-09-29T09:15:35.221Z,67.40
2023-09-29T09:18:04.080Z,66.80
2023-09-29T09:20:32.560Z,67.10
2023-09-29T09:23:02.226Z,65.60
2023-09-29T09:25:42.982Z,65.00
2023-09-29T09:28:17.586Z,64.80
2023-09-29T09:30:47.445Z,64.50
2023-09-29T09:33:22.404Z,64.50
2023-09-29T09:35:52.174Z,65.00
2023-09-29T09:38:20.561Z,63.60
2023-09-29T09:40:51.192Z,63.50
2023-09-29T09:43:22.668Z,63.40
2023-09-29T09:46:03.596Z,63.60
2023-09-29T09:48:37.604Z,63.80
2023-09-29T09:51:08.201Z,63.70
2023-09-29T09:53:39.155Z,63.70
2023-09-29T09:56:20.518Z,63.80
2023-09-29T09:58:52.879Z,63.90
2023-09-29T10:01:23.443Z,63.90
2023-09-29T10:03:52.589Z,64.00
2023-09-29T10:06:23.142Z,63.60
2023-09-29T10:09:02.085Z,63.40
2023-09-29T10:11:32.715Z,63.10
2023-09-29T10:14:05.666Z,63.10
2023-09-29T10:16:36.366Z,62.80
2023-09-29T10:19:07.826Z,62.50
2023-09-29T10:21:44.258Z,62.20
2023-09-29T10:24:14.836Z,61.90
2023-09-29T10:26:50.195Z,61.60
2023-09-29T10:29:22.527Z,61.50
2023-09-29T10:31:51.311Z,61.10
2023-09-29T10:34:22.124Z,60.80
2023-09-29T10:36:56.675Z,60.60
2023-09-29T10:39:28.974Z,60.60
2023-09-29T10:42:07.192Z,60.50
2023-09-29T10:44:46.002Z,60.30
2023-09-29T10:47:15.515Z,60.20
2023-09-29T10:49:47.382Z,60.00
2023-09-29T10:52:23.978Z,60.00
2023-09-29T10:54:58.179Z,60.00
2023-09-29T10:57:29.830Z,60.00
2023-09-29T11:00:01.886Z,60.10
2023-09-29T11:02:32.235Z,60.30
2023-09-29T11:05:03.748Z,60.80
2023-09-29T11:07:32.100Z,60.50
2023-09-29T11:10:01.189Z,60.50
2023-09-29T11:12:37.781Z,60.20
2023-09-29T11:15:10.076Z,60.20
2023-09-29T11:17:47.037Z,60.00
2023-09-29T11:20:18.119Z,59.80
2023-09-29T11:22:49.004Z,59.60
2023-09-29T11:25:21.063Z,59.70
2023-09-29T11:27:54.224Z,59.50
2023-09-29T11:30:25.818Z,59.40
2023-09-29T11:32:55.035Z,59.30
2023-09-29T11:35:23.730Z,59.30
2023-09-29T11:37:51.938Z,59.20
2023-09-29T11:40:20.305Z,58.90
2023-09-29T11:42:48.569Z,58.40
2023-09-29T11:45:18.821Z,58.10
2023-09-29T11:47:47.258Z,57.90
2023-09-29T11:50:15.608Z,57.50
2023-09-29T11:52:43.797Z,57.60
2023-09-29T11:55:14.605Z,57.60
2023-09-29T11:57:43.233Z,57.50
2023-09-29T12:00:14.573Z,57.10
2023-09-29T12:02:44.913Z,56.80
2023-09-29T12:05:13.834Z,56.60
2023-09-29T12:07:42.182Z,56.50
2023-09-29T12:10:11.398Z,56.20
2023-09-29T12:12:40.838Z,56.10
2023-09-29T12:15:13.188Z,55.70
2023-09-29T12:17:42.946Z,55.40
2023-09-29T12:20:15.256Z,55.00
2023-09-29T12:22:45.330Z,55.00
2023-09-29T12:25:15.547Z,54.50
2023-09-29T12:27:44.466Z,54.20
2023-09-29T12:30:14.764Z,54.50
2023-09-29T12:32:45.543Z,54.50
2023-09-29T12:35:14.949Z,54.30
2023-09-29T12:37:43.979Z,54.40
2023-09-29T12:40:13.415Z,54.30
2023-09-29T12:42:48.059Z,54.20
2023-09-29T12:45:19.260Z,54.40
2023-09-29T12:47:49.721Z,54.30
2023-09-29T12:50:18.547Z,53.80
2023-09-29T12:52:46.891Z,53.30
2023-09-29T12:55:19.504Z,53.20
2023-09-29T12:57:48.258Z,52.90
2023-09-29T13:00:21.036Z,52.80
2023-09-29T13:02:53.512Z,52.80
2023-09-29T13:05:23.813Z,53.20
2023-09-29T13:07:53.329Z,53.30
2023-09-29T13:10:22.301Z,53.30
2023-09-29T13:12:55.713Z,53.30
2023-09-29T13:15:24.634Z,53.30
2023-09-29T13:17:54.567Z,53.40
2023-09-29T13:20:23.169Z,53.30
2023-09-29T13:22:52.468Z,53.30
2023-09-29T13:25:21.344Z,53.30
2023-09-29T13:27:49.754Z,53.30
2023-09-29T13:30:18.804Z,53.30
2023-09-29T13:32:47.419Z,53.20
2023-09-29T13:35:17.370Z,53.10
2023-09-29T13:37:45.672Z,52.90
2023-09-29T13:40:14.231Z,52.80
2023-09-29T13:42:42.692Z,52.80
2023-09-29T13:45:13.360Z,52.70
2023-09-29T13:47:42.208Z,52.80
2023-09-29T13:50:12.532Z,52.60
2023-09-29T13:52:42.659Z,52.20
2023-09-29T13:55:12.827Z,51.60
2023-09-29T13:57:41.086Z,51.00
2023-09-29T14:00:10.445Z,51.10
2023-09-29T14:02:39.188Z,50.90
2023-09-29T14:05:08.333Z,50.00
2023-09-29T14:07:36.595Z,49.80
2023-09-29T14:10:07.280Z,50.10
2023-09-29T14:12:38.489Z,50.50
2023-09-29T14:15:08.864Z,50.70
2023-09-29T14:17:37.203Z,50.60
2023-09-29T14:20:07.068Z,50.40
2023-09-29T14:22:35.631Z,50.50
2023-09-29T14:25:05.614Z,50.20
2023-09-29T14:27:34.044Z,50.70
2023-09-29T14:30:03.094Z,50.90
2023-09-29T14:32:31.628Z,51.20
2023-09-29T14:35:00.207Z,51.20
2023-09-29T14:37:28.878Z,51.30
2023-09-29T14:39:58.466Z,51.40
2023-09-29T14:42:28.524Z,51.50
2023-09-29T14:44:57.550Z,51.60
2023-09-29T14:47:26.724Z,51.70
2023-09-29T14:49:57.754Z,51.70
2023-09-29T14:52:26.024Z,51.70
2023-09-29T14:54:54.630Z,51.70
2023-09-29T14:57:23.264Z,51.80
2023-09-29T14:59:52.969Z,51.80
2023-09-29T15:02:21.584Z,51.80
2023-09-29T15:04:56.935Z,51.80
2023-09-29T15:07:26.125Z,51.80
2023-09-29T15:09:54.478Z,52.10
2023-09-29T15:12:24.163Z,52.10
2023-09-29T15:14:54.599Z,52.20
2023-09-29T15:17:22.892Z,52.30
2023-09-29T15:19:52.304Z,52.50
2023-09-29T15:22:26.465Z,52.70
2023-09-29T15:24:55.760Z,52.90
2023-09-29T15:27:24.020Z,53.00
2023-09-29T15:29:54.140Z,53.10
2023-09-29T15:32:23.006Z,53.20
2023-09-29T15:34:51.308Z,53.20
2023-09-29T15:37:19.547Z,53.30
2023-09-29T15:39:49.182Z,53.40
2023-09-29T15:42:19.206Z,53.40
2023-09-29T15:44:47.720Z,53.50
2023-09-29T15:47:17.347Z,53.70
2023-09-29T15:49:55.973Z,54.00
2023-09-29T15:52:24.842Z,54.30
2023-09-29T15:54:54.416Z,54.50
2023-09-29T15:57:24.161Z,54.70
2023-09-29T15:59:53.749Z,54.90
2023-09-29T16:02:26.550Z,55.00
2023-09-29T16:04:56.130Z,55.20
2023-09-29T16:07:24.411Z,55.30
2023-09-29T16:09:52.977Z,55.40
2023-09-29T16:12:21.276Z,55.50
2023-09-29T16:14:49.609Z,55.60
2023-09-29T16:17:18.735Z,55.70
2023-09-29T16:19:49.805Z,55.90
2023-09-29T16:22:19.225Z,56.00
2023-09-29T16:24:47.508Z,56.10
2023-09-29T16:27:16.025Z,56.20
2023-09-29T16:29:44.268Z,56.40
2023-09-29T16:32:25.660Z,56.60
2023-09-29T16:35:02.222Z,56.70
2023-09-29T16:37:31.523Z,56.90
2023-09-29T16:40:03.605Z,57.10
2023-09-29T16:42:34.518Z,57.20
2023-09-29T16:45:02.780Z,57.50
2023-09-29T16:47:31.315Z,57.70
2023-09-29T16:50:01.305Z,57.90
2023-09-29T16:52:29.536Z,58.10
2023-09-29T16:54:57.739Z,58.20
2023-09-29T16:57:25.976Z,58.30
2023-09-29T16:59:54.416Z,58.40
2023-09-29T17:02:22.707Z,58.60
2023-09-29T17:04:51.434Z,58.80
2023-09-29T17:07:22.098Z,59.00
2023-09-29T17:09:51.842Z,59.20
2023-09-29T17:12:21.301Z,59.40
2023-09-29T17:14:49.973Z,59.50
2023-09-29T17:17:18.406Z,59.70
2023-09-29T17:19:50.553Z,59.80
2023-09-29T17:22:21.356Z,60.00
2023-09-29T17:24:49.904Z,60.90
2023-09-29T17:27:18.335Z,60.30
2023-09-29T17:29:48.131Z,60.40
2023-09-29T17:32:17.032Z,60.50
2023-09-29T17:34:45.322Z,60.70
2023-09-29T17:37:13.581Z,60.70
2023-09-29T17:39:43.275Z,60.80
2023-09-29T17:42:12.595Z,61.00
2023-09-29T17:44:40.934Z,61.10
2023-09-29T17:47:09.219Z,61.20
2023-09-29T17:49:37.671Z,61.40
2023-09-29T17:52:06.826Z,61.70
2023-09-29T17:54:35.073Z,61.90
2023-09-29T17:57:04.840Z,62.00
2023-09-29T17:59:34.168Z,62.20
2023-09-29T18:02:02.893Z,62.40
2023-09-29T18:04:31.706Z,62.70
2023-09-29T18:07:04.505Z,62.80
2023-09-29T18:09:32.913Z,62.90
2023-09-29T18:12:03.927Z,63.20
2023-09-29T18:14:34.570Z,63.30
2023-09-29T18:17:03.290Z,63.40
2023-09-29T18:19:31.950Z,63.50
2023-09-29T18:22:00.359Z,63.50
2023-09-29T18:24:28.794Z,63.60
2023-09-29T18:26:58.819Z,63.70
2023-09-29T18:29:27.535Z,63.90
2023-09-29T18:31:57.626Z,64.20
2023-09-29T18:34:25.898Z,64.40
2023-09-29T18:36:55.241Z,64.60
2023-09-29T18:39:23.557Z,64.80
2023-09-29T18:41:53.681Z,65.00
2023-09-29T18:44:22.410Z,65.10
2023-09-29T18:46:50.862Z,65.30
2023-09-29T18:49:20.648Z,65.60
2023-09-29T18:51:49.048Z,65.80
2023-09-29T18:54:17.292Z,66.10
2023-09-29T18:56:45.584Z,66.30
2023-09-29T18:59:14.243Z,66.50
2023-09-29T19:01:43.013Z,66.80
2023-09-29T19:04:13.594Z,66.90
2023-09-29T19:06:44.818Z,67.10
2023-09-29T19:09:13.481Z,67.40
2023-09-29T19:11:42.876Z,67.60
2023-09-29T19:14:12.713Z,67.80
2023-09-29T19:16:41.041Z,67.80
2023-09-29T19:19:11.539Z,67.80
2023-09-29T19:21:40.032Z,67.90
2023-09-29T19:24:10.012Z,68.10
2023-09-29T19:26:38.757Z,68.20
2023-09-29T19:29:07.463Z,68.30
2023-09-29T19:31:37.149Z,68.50
2023-09-29T19:34:06.714Z,68.60
2023-09-29T19:36:36.739Z,68.80
2023-09-29T19:39:05.660Z,69.00
2023-09-29T19:41:36.109Z,69.20
2023-09-29T19:44:04.549Z,69.40
2023-09-29T19:46:36.275Z,69.50
2023-09-29T19:49:06.439Z,69.60
2023-09-29T19:51:34.871Z,69.80
2023-09-29T19:54:03.581Z,69.90
2023-09-29T19:56:34.907Z,70.10
2023-09-29T19:59:06.206Z,70.40
2023-09-29T20:01:34.561Z,70.70
2023-09-29T20:04:03.866Z,70.80
2023-09-29T20:06:32.333Z,71.00
2023-09-29T20:09:02.151Z,71.20
2023-09-29T20:11:31.394Z,71.20
2023-09-29T20:13:59.827Z,71.10
2023-09-29T20:16:29.565Z,71.10
2023-09-29T20:18:58.075Z,71.00
2023-09-29T20:21:27.017Z,71.10
2023-09-29T20:23:56.102Z,71.20
2023-09-29T20:26:24.793Z,71.20
2023-09-29T20:28:54.162Z,71.50
2023-09-29T20:31:22.853Z,71.50
2023-09-29T20:33:52.692Z,71.70
2023-09-29T20:36:21.361Z,71.80
2023-09-29T20:38:49.936Z,71.90
2023-09-29T20:41:18.229Z,72.00
2023-09-29T20:43:46.504Z,72.10
2023-09-29T20:46:15.068Z,72.20
2023-09-29T20:48:46.967Z,72.30
2023-09-29T20:51:17.659Z,72.50
2023-09-29T20:53:46.312Z,72.60
2023-09-29T20:56:14.580Z,72.80
2023-09-29T20:58:42.816Z,72.90
2023-09-29T21:01:12.132Z,72.90
2023-09-29T21:03:40.657Z,73.00
2023-09-29T21:06:09.051Z,73.10
2023-09-29T21:08:39.294Z,73.20
2023-09-29T21:11:07.525Z,73.30
2023-09-29T21:13:36.269Z,73.40
2023-09-29T21:16:08.226Z,73.60
2023-09-29T21:18:36.651Z,73.80
2023-09-29T21:21:05.117Z,74.70
2023-09-29T21:23:33.828Z,74.20
2023-09-29T21:26:04.084Z,74.40
2023-09-29T21:28:35.274Z,74.60
2023-09-29T21:31:03.587Z,74.80
2023-09-29T21:33:31.981Z,74.90
2023-09-29T21:36:00.335Z,75.00
2023-09-29T21:38:28.642Z,75.10
2023-09-29T21:40:58.118Z,75.20
2023-09-29T21:43:28.155Z,75.30
2023-09-29T21:45:56.437Z,75.50
2023-09-29T21:48:25.382Z,75.40
2023-09-29T21:50:53.811Z,75.60
2023-09-29T21:53:22.180Z,75.70
2023-09-29T21:55:50.449Z,76.00
2023-09-29T21:58:19.181Z,76.00
2023-09-29T22:00:52.219Z,76.00
2023-09-29T22:03:23.337Z,76.10
2023-09-29T22:05:54.017Z,76.30
2023-09-29T22:08:22.908Z,76.50
2023-09-29T22:10:52.332Z,76.70
2023-09-29T22:13:21.820Z,76.80
2023-09-29T22:15:51.679Z,77.10
2023-09-29T22:18:20.565Z,77.20
2023-09-29T22:20:49.427Z,77.40
2023-09-29T22:23:18.401Z,77.60
2023-09-29T22:25:46.803Z,77.80
2023-09-29T22:28:15.226Z,78.10
2023-09-29T22:30:43.753Z,78.60
2023-09-29T22:33:14.155Z,78.90
2023-09-29T22:35:42.466Z,79.40
2023-09-29T22:38:11.105Z,79.70
2023-09-29T22:40:40.035Z,79.80
2023-09-29T22:43:08.301Z,80.00
2023-09-29T22:45:36.738Z,80.10
2023-09-29T22:48:06.659Z,80.40
2023-09-29T22:50:38.139Z,80.50
2023-09-29T22:53:07.497Z,80.80
2023-09-29T22:55:36.117Z,80.90
2023-09-29T22:58:05.613Z,80.90
2023-09-29T23:00:33.958Z,81.00
2023-09-29T23:03:02.768Z,81.20
2023-09-29T23:05:31.876Z,81.50
2023-09-29T23:08:01.844Z,81.50
2023-09-29T23:10:30.183Z,81.60
2023-09-29T23:12:58.783Z,81.60
2023-09-29T23:15:28.009Z,81.80
2023-09-29T23:17:57.149Z,81.90
2023-09-29T23:20:26.005Z,82.00
2023-09-29T23:22:55.753Z,81.90
2023-09-29T23:25:26.685Z,81.80
2023-09-29T23:27:55.613Z,84.30
2023-09-29T23:30:25.907Z,87.60
2023-09-29T23:32:54.421Z,90.50
2023-09-29T23:35:24.047Z,92.20
2023-09-29T23:37:52.342Z,93.60
2023-09-29T23:40:20.916Z,95.00
2023-09-29T23:42:50.643Z,96.20
2023-09-29T23:45:19.735Z,97.30
2023-09-29T23:47:51.238Z,98.20
2023-09-29T23:50:19.987Z,98.80
2023-09-29T23:52:48.251Z,99.30
2023-09-29T23:55:17.233Z,99.60
2023-09-29T23:57:45.824Z,99.80
